< < Back
Terminal Aerodrome Forecast


Current Version              Previous Versions:   1  2  3  4  5  6  7  8  9  

Terminal Aerodrome Forecast

405
FTUS42 KTAE 270520
TAFVLD
TAF
KVLD 270520Z 2706/2806 00000KT 3SM BR SCT002
     FM271300 06005KT P6SM SCT050=

Latest METAR

809
SAUS70 KWBC 280700 RRP
MTRVLD
METAR KVLD 280653Z AUTO 21004KT 10SM BKN120 24/22 A2998 RMK AO2 SLP159
T02440217


USA.gov is the U.S. government's official web portal to all federal, state and local government web resources and services.